Time;durP1;ratioP1;P1;durP2;ratioP2;P2;SDS_P1;SDS_P2;PMS_P1;PMS_P2;Temp;Humidity;BMP_temperature;BMP_pressure;BME280_temperature;BME280_humidity;BME280_pressure;Samples;Min_cycle;Max_cycle;Signal;HPM_P1;HPM_P2
2023/12/13 00:01:53;;;;;;;10.07;2.30;;;7.70;99.90;;;;;;4841415;29;20045;-84
2023/12/13 00:04:19;;;;;;;8.40;2.10;;;7.70;99.90;;;;;;4832186;29;20414;-84
2023/12/13 00:06:44;;;;;;;10.07;2.28;;;7.60;99.90;;;;;;4835164;29;20518;-83
2023/12/13 00:09:11;;;;;;;15.27;2.70;;;7.60;99.90;;;;;;4838413;29;20034;-83
2023/12/13 00:11:36;;;;;;;7.90;2.50;;;7.50;99.90;;;;;;4840844;29;20068;-84
2023/12/13 00:14:02;;;;;;;9.95;2.40;;;7.50;99.90;;;;;;4839801;29;20125;-84
2023/12/13 00:16:28;;;;;;;12.73;2.42;;;7.40;99.90;;;;;;4834347;29;20044;-83
2023/12/13 00:18:53;;;;;;;10.30;2.75;;;7.30;99.90;;;;;;4836420;29;20406;-84
2023/12/13 00:21:19;;;;;;;9.60;2.35;;;7.30;99.90;;;;;;4837991;29;20041;-83
2023/12/13 00:23:46;;;;;;;9.57;2.50;;;7.30;99.90;;;;;;4840332;29;20443;-84
2023/12/13 00:26:16;;;;;;;5.60;2.63;;;7.30;99.90;;;;;;4839208;29;20097;-84
2023/12/13 00:28:42;;;;;;;6.35;2.30;;;7.30;99.90;;;;;;4839918;29;20101;-83
2023/12/13 00:31:08;;;;;;;13.75;2.72;;;7.30;99.90;;;;;;4835170;29;20045;-84
2023/12/13 00:33:34;;;;;;;13.88;3.72;;;7.30;99.90;;;;;;4837447;29;22065;-84
2023/12/13 00:36:00;;;;;;;9.25;2.90;;;7.50;99.90;;;;;;4836937;29;20052;-84
2023/12/13 00:38:25;;;;;;;9.40;2.67;;;7.30;99.90;;;;;;4836679;29;20719;-83
2023/12/13 00:40:51;;;;;;;6.30;2.72;;;7.30;99.90;;;;;;4835367;29;20034;-84
2023/12/13 00:43:17;;;;;;;8.85;2.85;;;7.30;99.90;;;;;;4835841;29;21206;-84
2023/12/13 00:45:43;;;;;;;9.93;2.90;;;7.40;99.90;;;;;;4837248;29;20117;-84
2023/12/13 00:48:08;;;;;;;12.23;2.65;;;7.40;99.90;;;;;;4836527;29;20042;-84
2023/12/13 00:50:34;;;;;;;10.18;3.33;;;7.50;99.90;;;;;;4842325;29;20050;-84
2023/12/13 00:53:00;;;;;;;8.63;2.83;;;7.50;99.90;;;;;;4838254;29;20029;-84
2023/12/13 00:55:26;;;;;;;9.52;2.85;;;7.50;99.90;;;;;;4836786;29;20034;-83
2023/12/13 00:57:52;;;;;;;8.70;3.13;;;7.50;99.90;;;;;;4842616;29;20053;-84
2023/12/13 01:00:18;;;;;;;6.38;2.75;;;7.50;99.90;;;;;;4837911;29;20367;-84
2023/12/13 01:02:43;;;;;;;7.93;3.00;;;7.50;99.90;;;;;;4832751;29;20041;-84
2023/12/13 01:05:09;;;;;;;11.10;3.60;;;7.50;99.90;;;;;;4829986;29;20085;-84
2023/12/13 01:07:35;;;;;;;11.98;2.95;;;7.50;99.90;;;;;;4829738;29;20215;-83
2023/12/13 01:10:01;;;;;;;9.00;3.03;;;7.60;99.90;;;;;;4831354;29;20131;-84
2023/12/13 01:12:26;;;;;;;13.05;3.13;;;7.60;99.90;;;;;;4835152;29;20108;-84
2023/12/13 01:14:53;;;;;;;12.23;3.20;;;7.60;99.90;;;;;;4835626;29;20044;-84
2023/12/13 01:17:18;;;;;;;9.57;2.97;;;7.70;99.90;;;;;;4833506;29;20085;-82
2023/12/13 01:19:44;;;;;;;10.00;3.03;;;7.60;99.90;;;;;;4836584;29;20054;-83
2023/12/13 01:22:09;;;;;;;11.73;3.78;;;7.60;99.90;;;;;;4829796;29;20195;-82
2023/12/13 01:24:36;;;;;;;6.05;3.17;;;7.60;99.90;;;;;;4837177;29;20476;-82
2023/12/13 01:27:02;;;;;;;11.23;3.25;;;7.60;99.90;;;;;;4836807;29;20053;-84
2023/12/13 01:29:29;;;;;;;8.82;2.85;;;7.60;99.90;;;;;;4835550;29;20045;-84
2023/12/13 01:31:54;;;;;;;10.82;3.17;;;7.60;99.90;;;;;;4834431;29;20373;-84
2023/12/13 01:34:20;;;;;;;15.88;4.07;;;7.80;99.90;;;;;;4834526;29;20471;-84
2023/12/13 01:36:45;;;;;;;12.32;3.20;;;7.60;99.90;;;;;;4836025;29;20184;-84
2023/12/13 01:39:13;;;;;;;8.32;3.50;;;7.60;99.90;;;;;;4836040;29;20053;-84
2023/12/13 01:41:40;;;;;;;8.93;3.50;;;7.80;99.90;;;;;;4833513;29;20042;-84
2023/12/13 01:44:06;;;;;;;13.40;3.42;;;7.90;99.90;;;;;;4833403;29;20443;-84
2023/12/13 01:46:32;;;;;;;10.88;3.67;;;7.80;99.90;;;;;;4831949;29;20045;-83
2023/12/13 01:48:57;;;;;;;10.98;3.30;;;7.80;99.90;;;;;;4834851;29;20032;-84
2023/12/13 01:51:23;;;;;;;12.90;3.65;;;7.80;99.90;;;;;;4830653;29;20048;-84
2023/12/13 01:53:50;;;;;;;6.80;3.17;;;7.80;99.90;;;;;;4836486;29;20039;-83
2023/12/13 01:56:15;;;;;;;5.05;3.28;;;7.70;99.90;;;;;;4835615;29;20108;-83
2023/12/13 01:58:41;;;;;;;10.25;3.67;;;7.80;99.90;;;;;;4835557;29;20033;-83
2023/12/13 02:01:08;;;;;;;9.27;4.30;;;7.80;99.90;;;;;;4836807;29;20510;-84
2023/12/13 02:03:35;;;;;;;8.63;3.13;;;7.90;99.90;;;;;;4831501;29;20038;-83
2023/12/13 02:06:02;;;;;;;8.40;3.42;;;7.80;99.90;;;;;;4831865;29;20120;-83
2023/12/13 02:08:28;;;;;;;7.28;3.20;;;7.80;99.90;;;;;;4835256;29;20506;-83
2023/12/13 02:10:56;;;;;;;15.02;4.10;;;7.70;99.90;;;;;;4832955;29;20056;-83
2023/12/13 02:13:22;;;;;;;11.05;4.57;;;7.70;99.90;;;;;;4836974;29;20029;-83
2023/12/13 02:15:49;;;;;;;10.05;3.78;;;7.80;99.90;;;;;;4834611;29;20034;-83
2023/12/13 02:18:14;;;;;;;13.45;3.72;;;7.90;99.90;;;;;;4834184;29;20040;-84
2023/12/13 02:20:41;;;;;;;11.35;4.75;;;7.80;99.90;;;;;;4838927;29;20371;-83
2023/12/13 02:23:07;;;;;;;12.82;4.30;;;7.90;99.90;;;;;;4839682;29;20140;-84
2023/12/13 02:25:38;;;;;;;9.65;4.30;;;7.90;99.90;;;;;;4838496;29;20502;-84
2023/12/13 02:28:06;;;;;;;9.00;3.60;;;7.90;99.90;;;;;;4838035;29;20062;-84
2023/12/13 02:30:31;;;;;;;11.23;3.80;;;7.90;99.90;;;;;;4838813;29;20037;-84
2023/12/13 02:32:57;;;;;;;9.63;3.50;;;8.00;99.90;;;;;;4831741;29;20180;-83
2023/12/13 02:35:23;;;;;;;9.25;4.00;;;8.00;99.90;;;;;;4836634;29;21117;-84
2023/12/13 02:37:49;;;;;;;8.15;3.50;;;7.90;99.90;;;;;;4840269;29;20025;-83
2023/12/13 02:40:17;;;;;;;12.07;3.50;;;8.10;99.90;;;;;;4834019;29;20422;-84
2023/12/13 02:42:43;;;;;;;11.05;3.95;;;8.00;99.90;;;;;;4839009;29;20029;-84
2023/12/13 02:45:11;;;;;;;7.63;3.80;;;8.00;99.90;;;;;;4837490;29;20038;-84
2023/12/13 02:47:41;;;;;;;10.35;3.58;;;8.00;99.90;;;;;;4833742;29;20049;-83
2023/12/13 02:50:07;;;;;;;8.07;3.38;;;8.00;99.90;;;;;;4836666;29;20041;-84
2023/12/13 02:52:33;;;;;;;8.50;3.60;;;8.00;99.90;;;;;;4836802;29;20037;-84
2023/12/13 02:54:59;;;;;;;13.43;4.15;;;8.10;99.90;;;;;;4831449;29;20041;-83
2023/12/13 02:57:24;;;;;;;10.88;3.53;;;8.10;99.90;;;;;;4832242;29;20125;-84
2023/12/13 02:59:50;;;;;;;11.75;4.53;;;8.20;99.90;;;;;;4833913;29;20539;-84
2023/12/13 03:02:16;;;;;;;7.55;3.63;;;8.10;99.90;;;;;;4827329;29;20633;-84
2023/12/13 03:04:42;;;;;;;14.38;4.63;;;8.20;99.90;;;;;;4828277;29;20049;-84
2023/12/13 03:07:07;;;;;;;12.48;5.00;;;8.10;99.90;;;;;;4834969;29;20125;-84
2023/12/13 03:09:34;;;;;;;11.00;4.35;;;8.20;99.90;;;;;;4830612;29;20179;-84
2023/12/13 03:12:00;;;;;;;13.32;4.55;;;8.20;99.90;;;;;;4828591;29;20037;-84
2023/12/13 03:14:26;;;;;;;10.15;5.28;;;8.20;99.90;;;;;;4838446;29;20064;-83
2023/12/13 03:16:51;;;;;;;14.27;6.35;;;8.30;99.90;;;;;;4834793;29;20034;-84
2023/12/13 03:19:17;;;;;;;16.92;7.30;;;8.20;99.90;;;;;;4839473;29;20117;-83
2023/12/13 03:21:43;;;;;;;17.00;7.70;;;8.20;99.90;;;;;;4831077;29;20167;-84
2023/12/13 03:24:08;;;;;;;21.20;7.40;;;8.20;99.90;;;;;;4831132;29;20061;-83
2023/12/13 03:26:34;;;;;;;16.33;7.03;;;8.20;99.90;;;;;;4828022;29;20057;-83
2023/12/13 03:29:00;;;;;;;17.17;6.72;;;8.20;99.90;;;;;;4835988;29;20026;-83
2023/12/13 03:31:25;;;;;;;24.45;7.22;;;8.20;99.90;;;;;;4835865;29;20108;-83
2023/12/13 03:33:51;;;;;;;20.50;7.32;;;8.20;99.90;;;;;;4837269;29;20041;-84
2023/12/13 03:36:17;;;;;;;19.10;7.72;;;8.20;99.90;;;;;;4839673;29;20108;-84
2023/12/13 03:38:44;;;;;;;20.08;8.13;;;8.20;99.90;;;;;;4841932;29;20057;-83
2023/12/13 03:41:10;;;;;;;17.90;8.18;;;8.20;99.90;;;;;;4839326;29;20068;-83
2023/12/13 03:43:35;;;;;;;19.20;8.48;;;8.20;99.90;;;;;;4840217;29;20438;-83
2023/12/13 03:46:01;;;;;;;18.98;7.80;;;8.20;99.90;;;;;;4840574;29;20037;-83
2023/12/13 03:48:27;;;;;;;19.88;7.38;;;8.20;99.90;;;;;;4841287;29;20041;-83
2023/12/13 03:50:52;;;;;;;21.38;8.55;;;8.20;99.90;;;;;;4839987;29;20458;-83
2023/12/13 03:53:18;;;;;;;17.92;8.43;;;8.20;99.90;;;;;;4838731;29;20285;-83
2023/12/13 03:55:44;;;;;;;19.15;7.78;;;8.20;99.90;;;;;;4838660;29;20103;-83
2023/12/13 03:58:09;;;;;;;20.15;8.70;;;8.20;99.90;;;;;;4841459;29;20276;-83
2023/12/13 04:00:35;;;;;;;21.15;7.60;;;8.20;99.90;;;;;;4835692;29;20037;-83
2023/12/13 04:03:01;;;;;;;23.38;8.23;;;8.00;99.90;;;;;;4836253;29;20132;-83
2023/12/13 04:05:28;;;;;;;18.85;8.30;;;8.20;99.90;;;;;;4843168;29;20180;-83
2023/12/13 04:07:53;;;;;;;22.13;9.65;;;8.20;99.90;;;;;;4842583;29;20164;-83
2023/12/13 04:10:19;;;;;;;24.30;9.55;;;8.10;99.90;;;;;;4838439;29;20110;-83
2023/12/13 04:12:45;;;;;;;24.98;8.98;;;8.10;99.90;;;;;;4839126;29;20029;-83
2023/12/13 04:15:11;;;;;;;25.75;10.60;;;8.20;99.90;;;;;;4839486;29;20048;-83
2023/12/13 04:17:37;;;;;;;30.88;10.48;;;8.20;99.90;;;;;;4845136;29;20026;-84
2023/12/13 04:20:03;;;;;;;24.40;10.18;;;8.20;99.90;;;;;;4842093;29;20096;-84
2023/12/13 04:22:29;;;;;;;28.45;9.57;;;8.20;99.90;;;;;;4844490;29;20038;-82
2023/12/13 04:24:55;;;;;;;30.92;10.30;;;8.20;99.90;;;;;;4842767;29;20041;-83
2023/12/13 04:27:20;;;;;;;24.90;9.15;;;8.20;99.90;;;;;;4822986;29;20059;-83
2023/12/13 04:29:46;;;;;;;27.80;11.85;;;8.20;99.90;;;;;;4841477;29;20074;-84
2023/12/13 04:32:11;;;;;;;37.08;11.75;;;8.20;99.90;;;;;;4835836;29;20301;-84
2023/12/13 04:34:37;;;;;;;35.95;11.45;;;8.20;99.90;;;;;;4837908;29;20073;-84
2023/12/13 04:37:03;;;;;;;31.70;11.13;;;8.20;99.90;;;;;;4839004;29;20030;-82
2023/12/13 04:39:29;;;;;;;37.38;12.65;;;8.20;99.90;;;;;;4836623;29;20041;-82
2023/12/13 04:41:54;;;;;;;42.97;13.00;;;8.20;99.90;;;;;;4837343;29;20060;-83
2023/12/13 04:44:20;;;;;;;42.70;13.75;;;8.20;99.90;;;;;;4837290;29;20033;-85
2023/12/13 04:46:46;;;;;;;40.25;13.07;;;8.10;99.90;;;;;;4840209;29;20041;-84
2023/12/13 04:49:11;;;;;;;39.05;12.90;;;8.20;99.90;;;;;;4839991;29;20052;-84
2023/12/13 04:51:37;;;;;;;34.10;12.68;;;8.10;99.90;;;;;;4841141;29;21146;-84
2023/12/13 04:54:03;;;;;;;32.88;11.35;;;8.20;99.90;;;;;;4837373;29;20284;-84
2023/12/13 04:56:28;;;;;;;36.65;12.60;;;8.10;99.90;;;;;;4838685;29;20952;-84
2023/12/13 04:58:54;;;;;;;29.52;10.68;;;8.20;99.90;;;;;;4839145;29;20041;-84
2023/12/13 05:01:19;;;;;;;32.95;11.45;;;8.20;99.90;;;;;;4839764;29;20052;-83
2023/12/13 05:03:45;;;;;;;36.35;11.70;;;8.20;99.90;;;;;;4836690;29;20291;-84
2023/12/13 05:06:11;;;;;;;30.48;10.18;;;8.20;99.90;;;;;;4836095;29;20042;-83
2023/12/13 05:08:36;;;;;;;33.30;10.75;;;8.20;99.90;;;;;;4838680;29;20327;-83
2023/12/13 05:11:02;;;;;;;31.05;11.15;;;8.20;99.90;;;;;;4833393;29;20455;-83
2023/12/13 05:13:28;;;;;;;32.40;10.23;;;8.10;99.90;;;;;;4833737;29;20577;-84
2023/12/13 05:15:53;;;;;;;29.00;10.27;;;8.20;99.90;;;;;;4834830;29;20056;-83
2023/12/13 05:18:19;;;;;;;36.00;11.75;;;8.10;99.90;;;;;;4837069;29;20061;-84
2023/12/13 05:20:45;;;;;;;33.60;11.73;;;8.10;99.90;;;;;;4838154;29;20032;-84
2023/12/13 05:23:11;;;;;;;32.53;10.80;;;8.00;99.90;;;;;;4837571;29;20032;-82
2023/12/13 05:25:38;;;;;;;32.13;11.68;;;8.10;99.90;;;;;;4838150;29;20414;-84
2023/12/13 05:28:04;;;;;;;32.63;11.98;;;8.10;99.90;;;;;;4835834;29;20033;-84
2023/12/13 05:30:30;;;;;;;33.72;12.30;;;8.00;99.90;;;;;;4833509;29;20038;-83
2023/12/13 05:32:56;;;;;;;35.85;12.35;;;8.10;99.90;;;;;;4833642;29;20037;-84
2023/12/13 05:35:22;;;;;;;37.92;12.40;;;8.10;99.90;;;;;;4839412;29;20026;-84
2023/12/13 05:37:47;;;;;;;40.00;13.10;;;8.10;99.90;;;;;;4836406;29;20087;-84
2023/12/13 05:40:13;;;;;;;37.22;13.20;;;8.20;99.90;;;;;;4838583;29;20042;-83
2023/12/13 05:42:39;;;;;;;36.67;12.68;;;8.10;99.90;;;;;;4835395;29;20298;-83
2023/12/13 05:45:05;;;;;;;43.97;13.25;;;8.10;99.90;;;;;;4836407;29;20564;-83
2023/12/13 05:47:32;;;;;;;40.95;13.38;;;8.10;99.90;;;;;;4838188;29;20040;-83
2023/12/13 05:49:57;;;;;;;42.28;12.65;;;8.00;99.90;;;;;;4836222;29;20034;-83
2023/12/13 05:52:23;;;;;;;50.10;13.52;;;8.00;99.90;;;;;;4834587;29;20426;-83
2023/12/13 05:54:49;;;;;;;41.42;13.80;;;8.00;99.90;;;;;;4832960;29;20025;-83
2023/12/13 05:57:15;;;;;;;41.65;14.05;;;7.90;99.90;;;;;;4837091;29;20033;-83
2023/12/13 05:59:40;;;;;;;44.97;13.88;;;8.00;99.90;;;;;;4839231;29;20052;-83
2023/12/13 06:02:06;;;;;;;40.95;12.77;;;8.00;99.90;;;;;;4834930;29;20033;-84
2023/12/13 06:04:32;;;;;;;42.92;14.40;;;8.00;99.90;;;;;;4832284;29;20050;-84
2023/12/13 06:06:57;;;;;;;47.83;14.27;;;8.00;99.90;;;;;;4836064;29;20042;-83
2023/12/13 06:09:23;;;;;;;38.60;13.70;;;8.00;99.90;;;;;;4838000;29;20457;-84
2023/12/13 06:11:49;;;;;;;42.28;14.68;;;8.10;99.90;;;;;;4840320;29;20394;-83
2023/12/13 06:14:14;;;;;;;47.15;15.02;;;8.00;99.90;;;;;;4841267;29;20037;-83
2023/12/13 06:16:40;;;;;;;43.67;13.75;;;8.00;99.90;;;;;;4840438;29;20112;-83
2023/12/13 06:19:06;;;;;;;45.67;14.48;;;7.90;99.90;;;;;;4837173;29;20034;-83
2023/12/13 06:21:33;;;;;;;36.35;12.05;;;8.00;99.90;;;;;;4837261;29;20624;-83
2023/12/13 06:24:00;;;;;;;40.13;13.85;;;8.00;99.90;;;;;;4839150;29;20541;-82
2023/12/13 06:26:26;;;;;;;38.35;12.73;;;8.00;99.90;;;;;;4836655;29;20037;-84
2023/12/13 06:28:52;;;;;;;43.25;12.32;;;8.00;99.90;;;;;;4842012;29;20044;-82
2023/12/13 06:31:18;;;;;;;38.90;12.45;;;8.00;99.90;;;;;;4840005;29;20422;-83
2023/12/13 06:33:43;;;;;;;33.72;11.55;;;7.90;99.90;;;;;;4837072;29;20082;-84
2023/12/13 06:36:09;;;;;;;27.85;9.90;;;7.90;99.90;;;;;;4835502;29;20498;-84
2023/12/13 06:38:35;;;;;;;27.80;10.70;;;8.00;99.90;;;;;;4837890;29;20033;-84
2023/12/13 06:41:00;;;;;;;22.30;8.95;;;8.00;99.90;;;;;;4834377;29;20037;-84
2023/12/13 06:43:26;;;;;;;23.40;9.30;;;7.80;99.90;;;;;;4835196;29;20240;-85
2023/12/13 06:45:52;;;;;;;19.42;7.75;;;7.90;99.90;;;;;;4836825;29;20073;-84
2023/12/13 06:48:17;;;;;;;18.75;8.38;;;7.80;99.90;;;;;;4837389;29;20038;-84
2023/12/13 06:50:43;;;;;;;22.52;8.35;;;7.80;99.90;;;;;;4833398;29;20383;-84
2023/12/13 06:53:09;;;;;;;22.90;8.27;;;7.80;99.90;;;;;;4835761;29;21566;-85
2023/12/13 06:55:35;;;;;;;22.60;8.38;;;7.80;99.90;;;;;;4839829;29;20025;-85
2023/12/13 06:58:00;;;;;;;24.85;9.27;;;7.80;99.90;;;;;;4840710;29;20062;-84
2023/12/13 07:00:27;;;;;;;22.77;9.00;;;7.80;99.90;;;;;;4838837;29;20510;-85
2023/12/13 07:02:53;;;;;;;28.88;9.63;;;7.80;99.90;;;;;;4832969;29;20068;-85
2023/12/13 07:05:19;;;;;;;22.50;8.18;;;7.80;99.90;;;;;;4835021;29;20081;-85
2023/12/13 07:07:47;;;;;;;21.58;8.10;;;7.80;99.90;;;;;;4839604;29;20041;-85
2023/12/13 07:10:13;;;;;;;29.48;10.27;;;7.80;99.90;;;;;;4835633;29;20915;-85
2023/12/13 07:12:40;;;;;;;27.33;9.65;;;7.80;99.90;;;;;;4837382;29;20390;-85
2023/12/13 07:15:07;;;;;;;27.10;9.77;;;7.80;99.90;;;;;;4832540;29;20036;-84
2023/12/13 07:17:33;;;;;;;27.15;9.32;;;7.80;99.90;;;;;;4833322;29;20032;-82
2023/12/13 07:19:59;;;;;;;26.17;9.65;;;7.80;99.90;;;;;;4837970;29;20033;-85
2023/12/13 07:22:25;;;;;;;25.85;10.10;;;7.80;99.90;;;;;;4839343;29;20067;-84
2023/12/13 07:24:50;;;;;;;26.30;9.80;;;7.80;99.90;;;;;;4833844;29;20108;-84
2023/12/13 07:27:16;;;;;;;28.33;10.15;;;7.90;99.90;;;;;;4833380;29;20201;-86
2023/12/13 07:29:42;;;;;;;33.17;10.95;;;7.80;99.90;;;;;;4833966;29;20229;-86
2023/12/13 07:32:09;;;;;;;30.65;11.15;;;7.80;99.90;;;;;;4834053;29;20124;-86
2023/12/13 07:34:36;;;;;;;28.65;10.10;;;7.80;99.90;;;;;;4831890;29;20026;-86
2023/12/13 07:37:02;;;;;;;25.98;9.30;;;7.80;99.90;;;;;;4835123;29;20117;-84
2023/12/13 07:39:30;;;;;;;24.25;9.25;;;7.70;99.90;;;;;;4830206;29;20026;-84
2023/12/13 07:41:57;;;;;;;21.98;8.35;;;7.70;99.90;;;;;;4830203;29;20040;-85
2023/12/13 07:44:22;;;;;;;22.75;7.53;;;7.60;99.90;;;;;;4825244;29;20407;-85
2023/12/13 07:46:48;;;;;;;17.92;8.85;;;7.60;99.90;;;;;;4820243;29;20056;-85
2023/12/13 07:49:14;;;;;;;16.67;7.03;;;7.50;99.90;;;;;;4827792;29;20041;-85
2023/12/13 07:51:39;;;;;;;19.70;7.28;;;7.60;99.90;;;;;;4829899;29;20501;-85
2023/12/13 07:54:05;;;;;;;16.65;7.03;;;7.50;99.90;;;;;;4827772;29;20030;-85
2023/12/13 07:56:31;;;;;;;16.52;7.22;;;7.50;99.90;;;;;;4825222;29;20037;-85
2023/12/13 07:58:56;;;;;;;16.45;6.18;;;7.50;99.90;;;;;;4828120;29;20784;-84
2023/12/13 08:01:22;;;;;;;12.10;5.20;;;7.40;99.90;;;;;;4830616;29;20197;-82
2023/12/13 08:03:48;;;;;;;17.85;6.60;;;7.50;99.90;;;;;;4825153;29;20065;-82
2023/12/13 08:06:15;;;;;;;15.50;6.07;;;7.50;99.90;;;;;;4825351;29;20167;-85
2023/12/13 08:08:41;;;;;;;12.02;5.38;;;7.50;99.90;;;;;;4819743;29;20060;-84
2023/12/13 08:11:08;;;;;;;10.00;4.35;;;7.50;99.90;;;;;;4824113;29;20041;-86
2023/12/13 08:13:34;;;;;;;10.07;5.07;;;7.40;99.90;;;;;;4829777;29;20172;-83
2023/12/13 08:16:00;;;;;;;9.43;4.78;;;7.40;99.90;;;;;;4829610;29;20515;-82
2023/12/13 08:18:26;;;;;;;9.35;4.32;;;7.40;99.90;;;;;;4825681;29;20282;-81
2023/12/13 08:20:52;;;;;;;12.48;5.00;;;7.40;99.90;;;;;;4826569;29;20181;-80
2023/12/13 08:23:17;;;;;;;11.00;4.80;;;7.40;99.90;;;;;;4821968;29;20346;-80
2023/12/13 08:25:43;;;;;;;12.88;5.18;;;7.40;99.90;;;;;;4825840;29;20030;-80
2023/12/13 08:28:09;;;;;;;10.20;4.13;;;7.40;99.90;;;;;;4811782;29;20530;-85
2023/12/13 08:30:35;;;;;;;13.73;5.20;;;7.30;99.90;;;;;;4826287;29;20048;-88
2023/12/13 08:33:01;;;;;;;9.43;4.68;;;7.40;99.90;;;;;;4848935;29;20113;-87
2023/12/13 08:35:27;;;;;;;9.75;4.85;;;7.40;99.90;;;;;;4834953;29;20054;-84
2023/12/13 08:37:53;;;;;;;10.43;4.78;;;7.40;99.90;;;;;;4830156;29;20864;-84
2023/12/13 08:40:19;;;;;;;13.50;4.90;;;7.40;99.90;;;;;;4829549;29;20052;-85
2023/12/13 08:42:44;;;;;;;10.73;5.60;;;7.40;99.90;;;;;;4824921;29;20637;-85
2023/12/13 08:45:10;;;;;;;12.93;5.63;;;7.50;99.90;;;;;;4818242;29;20269;-87
2023/12/13 08:47:37;;;;;;;11.00;5.07;;;7.50;99.90;;;;;;4821773;29;20071;-85
2023/12/13 08:50:03;;;;;;;12.15;5.32;;;7.50;99.90;;;;;;4818722;29;20240;-81
2023/12/13 08:52:29;;;;;;;12.50;5.55;;;7.50;99.90;;;;;;4822679;29;20033;-81
2023/12/13 08:54:55;;;;;;;10.75;5.00;;;7.50;99.90;;;;;;4817729;29;20061;-78
2023/12/13 08:57:21;;;;;;;13.13;5.40;;;7.50;99.90;;;;;;4804207;29;20068;-82
2023/12/13 08:59:46;;;;;;;13.27;5.70;;;7.50;99.90;;;;;;4817035;29;20418;-78
2023/12/13 09:02:12;;;;;;;13.13;5.65;;;7.50;99.90;;;;;;4817573;29;20042;-79
2023/12/13 09:04:37;;;;;;;10.70;5.75;;;7.50;99.90;;;;;;4818608;29;20743;-81
2023/12/13 09:07:04;;;;;;;13.30;5.28;;;7.50;99.90;;;;;;4822028;29;20200;-81
2023/12/13 09:09:31;;;;;;;13.45;5.55;;;7.40;99.90;;;;;;4813318;29;21044;-82
2023/12/13 09:11:58;;;;;;;12.88;6.38;;;7.40;99.90;;;;;;4820662;29;21410;-82
2023/12/13 09:14:25;;;;;;;13.77;5.95;;;7.40;99.90;;;;;;4825701;29;20597;-81
2023/12/13 09:16:51;;;;;;;12.88;5.13;;;7.40;99.90;;;;;;4823012;29;20037;-81
2023/12/13 09:19:18;;;;;;;10.65;5.35;;;7.50;99.90;;;;;;4823247;29;20535;-81
2023/12/13 09:21:43;;;;;;;12.15;5.68;;;7.40;99.90;;;;;;4822860;29;20042;-80
2023/12/13 09:24:09;;;;;;;11.48;5.75;;;7.40;99.90;;;;;;4821479;29;20579;-82
2023/12/13 09:26:37;;;;;;;11.23;6.13;;;7.40;99.90;;;;;;4817995;29;20036;-82
2023/12/13 09:29:04;;;;;;;11.18;6.22;;;7.50;99.90;;;;;;4818531;29;20048;-81
2023/12/13 09:31:29;;;;;;;12.35;6.30;;;7.50;99.90;;;;;;4818642;29;20363;-84
2023/12/13 09:33:56;;;;;;;12.55;6.18;;;7.50;99.90;;;;;;4821167;29;20495;-81
2023/12/13 09:36:22;;;;;;;13.18;6.28;;;7.50;99.90;;;;;;4819904;29;20595;-82
2023/12/13 09:38:47;;;;;;;15.18;6.25;;;7.50;99.90;;;;;;4819959;29;20041;-82
2023/12/13 09:41:23;;;;;;;13.45;6.50;;;7.50;99.90;;;;;;4824094;29;20574;-82
2023/12/13 09:43:49;;;;;;;15.75;7.25;;;7.60;99.90;;;;;;4815371;29;20248;-82
2023/12/13 09:46:18;;;;;;;15.65;7.82;;;7.60;99.90;;;;;;4822615;29;20144;-82
2023/12/13 09:48:45;;;;;;;15.07;7.68;;;7.70;99.90;;;;;;4823140;29;20149;-82
2023/12/13 09:51:12;;;;;;;16.27;8.20;;;7.70;99.90;;;;;;4826328;29;20506;-82
2023/12/13 09:53:39;;;;;;;18.10;7.78;;;7.80;99.90;;;;;;4822841;29;20151;-82
2023/12/13 09:56:08;;;;;;;13.07;7.07;;;7.80;99.90;;;;;;4819920;29;20033;-82
2023/12/13 09:58:35;;;;;;;12.45;6.85;;;7.80;99.90;;;;;;4826247;29;20050;-82
2023/12/13 10:01:10;;;;;;;16.90;7.85;;;7.70;99.90;;;;;;4819767;29;20043;-82
2023/12/13 10:03:39;;;;;;;15.85;8.18;;;7.70;99.90;;;;;;4823808;29;20271;-82
2023/12/13 10:06:07;;;;;;;15.43;7.10;;;7.70;99.90;;;;;;4817610;29;20148;-82
2023/12/13 10:08:33;;;;;;;14.05;7.60;;;7.70;99.90;;;;;;4816098;29;20581;-82
2023/12/13 10:10:59;;;;;;;14.43;7.15;;;7.80;99.90;;;;;;4816394;29;20052;-79
2023/12/13 10:13:26;;;;;;;15.05;7.60;;;7.80;99.90;;;;;;4805358;29;20030;-82
2023/12/13 10:15:52;;;;;;;15.63;7.47;;;7.80;99.90;;;;;;4822185;29;20112;-82
2023/12/13 10:18:18;;;;;;;13.40;7.75;;;7.90;99.90;;;;;;4809500;29;20037;-82
2023/12/13 10:20:45;;;;;;;14.50;7.45;;;7.90;99.90;;;;;;4820902;29;20037;-82
2023/12/13 10:23:12;;;;;;;18.67;7.65;;;8.00;99.90;;;;;;4819945;29;20084;-82
2023/12/13 10:25:38;;;;;;;15.93;7.35;;;8.00;99.90;;;;;;4823117;29;20100;-82
2023/12/13 10:28:04;;;;;;;16.88;7.38;;;7.90;99.90;;;;;;4822986;29;20052;-82
2023/12/13 10:30:32;;;;;;;18.75;7.93;;;8.00;99.90;;;;;;4820577;29;20439;-79
2023/12/13 10:32:58;;;;;;;12.50;5.80;;;8.00;99.90;;;;;;4816536;29;20798;-79
2023/12/13 10:35:23;;;;;;;14.63;6.65;;;8.00;99.90;;;;;;4822674;29;20176;-80
2023/12/13 10:37:51;;;;;;;10.65;5.78;;;8.20;99.90;;;;;;4825533;29;20032;-80
2023/12/13 10:40:20;;;;;;;13.77;6.43;;;8.20;99.90;;;;;;4826598;29;20249;-79
2023/12/13 10:42:51;;;;;;;11.52;6.00;;;8.20;99.90;;;;;;4821080;29;20104;-80
2023/12/13 10:45:18;;;;;;;15.27;6.72;;;8.20;99.90;;;;;;4822403;29;20044;-80
2023/12/13 10:47:45;;;;;;;11.80;5.93;;;8.30;99.90;;;;;;4823547;29;20562;-83
2023/12/13 10:50:11;;;;;;;11.93;5.70;;;8.30;99.90;;;;;;4821178;29;20257;-84
2023/12/13 10:52:38;;;;;;;9.05;4.72;;;8.20;99.90;;;;;;4825084;29;20080;-86
2023/12/13 10:55:08;;;;;;;8.88;4.63;;;8.20;99.90;;;;;;4823851;29;20062;-88
2023/12/13 10:57:36;;;;;;;7.22;4.40;;;8.20;99.90;;;;;;4823254;29;20033;-85
2023/12/13 11:00:03;;;;;;;8.02;4.70;;;8.20;99.90;;;;;;4821650;29;20092;-80
2023/12/13 11:02:38;;;;;;;5.15;3.50;;;8.40;99.90;;;;;;4818818;29;20030;-85
2023/12/13 11:05:04;;;;;;;6.85;4.35;;;8.50;99.90;;;;;;4820852;29;20045;-90
2023/12/13 11:07:30;;;;;;;6.72;4.00;;;8.70;99.90;;;;;;4817759;29;20033;-83
2023/12/13 11:09:56;;;;;;;10.45;5.53;;;8.70;99.90;;;;;;4818867;29;20069;-88
2023/12/13 11:12:22;;;;;;;6.50;3.58;;;8.70;99.90;;;;;;4820901;29;20580;-85
2023/12/13 11:14:50;;;;;;;6.97;4.00;;;8.70;99.90;;;;;;4822731;29;20045;-89
2023/12/13 11:17:18;;;;;;;3.47;2.50;;;8.60;99.90;;;;;;4821707;29;20820;-87
2023/12/13 11:19:44;;;;;;;3.00;2.20;;;8.50;99.90;;;;;;4820849;29;20054;-80
2023/12/13 11:22:12;;;;;;;2.65;1.75;;;8.50;99.90;;;;;;4819312;29;20280;-82
2023/12/13 11:24:40;;;;;;;5.45;2.00;;;8.40;99.90;;;;;;4826175;29;20054;-87
2023/12/13 11:27:12;;;;;;;3.10;1.90;;;8.40;99.90;;;;;;4830979;29;20293;-89
2023/12/13 11:29:42;;;;;;;2.63;1.70;;;8.40;99.90;;;;;;4831828;29;20362;-80
2023/12/13 11:32:08;;;;;;;3.88;1.65;;;8.30;99.90;;;;;;4823805;29;20033;-81
2023/12/13 11:34:42;;;;;;;3.58;1.70;;;8.30;99.90;;;;;;4824056;29;20102;-80
2023/12/13 11:37:10;;;;;;;3.53;1.40;;;8.30;99.90;;;;;;4821347;29;20030;-81
2023/12/13 11:39:37;;;;;;;1.83;1.30;;;8.30;99.90;;;;;;4821425;29;20041;-83
2023/12/13 11:42:05;;;;;;;2.05;0.90;;;8.20;99.90;;;;;;4822437;29;20068;-83
2023/12/13 11:44:33;;;;;;;1.70;1.00;;;8.20;99.90;;;;;;4826955;29;20063;-81
2023/12/13 11:47:01;;;;;;;1.58;1.02;;;8.10;99.90;;;;;;4818713;29;20495;-84
2023/12/13 11:49:27;;;;;;;1.50;1.40;;;8.10;99.90;;;;;;4818971;29;20870;-82
2023/12/13 11:51:53;;;;;;;3.95;1.40;;;8.30;99.90;;;;;;4820054;29;20772;-82
2023/12/13 11:54:19;;;;;;;3.22;1.55;;;8.40;99.90;;;;;;4826822;29;20061;-81
2023/12/13 11:56:45;;;;;;;1.80;1.30;;;8.40;99.90;;;;;;4828612;29;20349;-81
2023/12/13 11:59:11;;;;;;;1.52;1.05;;;8.30;99.90;;;;;;4827916;29;20856;-85
2023/12/13 12:01:37;;;;;;;2.20;0.98;;;8.30;99.90;;;;;;4831589;29;20179;-86
2023/12/13 12:04:03;;;;;;;3.63;0.90;;;8.20;99.90;;;;;;4822553;29;20627;-83
2023/12/13 12:06:29;;;;;;;1.70;1.20;;;8.30;99.90;;;;;;4812994;29;20714;-81
2023/12/13 12:08:55;;;;;;;1.75;1.20;;;8.40;99.90;;;;;;4827751;29;20109;-83
2023/12/13 12:11:22;;;;;;;1.52;1.42;;;8.60;99.90;;;;;;4825152;29;20041;-81
2023/12/13 12:13:50;;;;;;;0.65;0.60;;;8.50;99.90;;;;;;4818920;29;20040;-81
2023/12/13 12:16:16;;;;;;;1.25;0.80;;;8.10;99.90;;;;;;4814971;29;20045;-80
2023/12/13 12:18:42;;;;;;;3.47;1.10;;;8.00;99.90;;;;;;4816630;29;20080;-81
2023/12/13 12:21:09;;;;;;;0.85;0.80;;;8.00;99.90;;;;;;4820788;29;20052;-82
2023/12/13 12:23:38;;;;;;;2.13;0.85;;;8.00;99.90;;;;;;4815941;29;20399;-80
2023/12/13 12:26:09;;;;;;;2.40;0.80;;;8.00;99.90;;;;;;4821822;29;20041;-82
2023/12/13 12:28:35;;;;;;;1.35;0.80;;;8.00;99.90;;;;;;4827369;29;20045;-82
2023/12/13 12:31:01;;;;;;;2.33;1.02;;;7.90;99.90;;;;;;4840697;29;20037;-82
2023/12/13 12:33:27;;;;;;;2.60;1.05;;;7.80;99.90;;;;;;4830194;29;20041;-82
2023/12/13 12:35:52;;;;;;;3.28;1.00;;;7.70;99.90;;;;;;4832380;29;20036;-82
2023/12/13 12:38:18;;;;;;;2.55;1.10;;;7.70;99.90;;;;;;4851651;29;20168;-80
2023/12/13 12:40:44;;;;;;;2.03;0.82;;;7.60;99.90;;;;;;4848243;29;20045;-82
2023/12/13 12:43:11;;;;;;;2.55;1.20;;;7.50;99.90;;;;;;4849484;29;20169;-82